METAR Data
IDs: Format: Raw Decoded Include TAF

Data at: 0208 UTC 10 Dec 2022

METAR for:KILN (Wilmington Arpt, OH, US)
Text:KILN 100154Z AUTO 06005KT 1 3/4SM BR OVC003 07/06 A3011 RMK AO2 SLP214 T00670056
Temperature: 6.7°C ( 44°F)
Dewpoint: 5.6°C ( 42°F) [RH = 93%]
Pressure (altimeter):30.11 inches Hg (1019.7 mb) [Sea level pressure: 1021.4 mb]
Winds:from the ENE (60 degrees) at 6 MPH (5 knots; 2.6 m/s)
Visibility: 1.75 sm ( 2.82 km)
Ceiling:300 feet AGL
Clouds: overcast cloud deck at 300 feet AGL
Weather:BR (mist)
QC Flag:automated observation with no human augmentation